Time;durP1;ratioP1;P1;durP2;ratioP2;P2;SDS_P1;SDS_P2;PMS_P1;PMS_P2;Temp;Humidity;BMP_temperature;BMP_pressure;BME280_temperature;BME280_humidity;BME280_pressure;Samples;Min_cycle;Max_cycle;Signal;HPM_P1;HPM_P2
2022/08/21 00:02:17;;;;;;;3.75;1.33;;;16.60;99.90;;;;;;4978215;28;20038;-68
2022/08/21 00:04:43;;;;;;;4.40;1.40;;;16.50;99.90;;;;;;4977813;28;20042;-69
2022/08/21 00:07:09;;;;;;;3.95;1.23;;;16.50;99.90;;;;;;4977644;28;20399;-68
2022/08/21 00:09:34;;;;;;;4.90;1.35;;;16.50;99.90;;;;;;4986785;28;20042;-69
2022/08/21 00:12:00;;;;;;;3.78;1.50;;;16.50;99.90;;;;;;4983758;28;20514;-68
2022/08/21 00:14:25;;;;;;;3.17;1.25;;;16.50;99.90;;;;;;4974070;28;20043;-68
2022/08/21 00:16:51;;;;;;;4.80;1.42;;;16.50;99.90;;;;;;4979407;28;20407;-68
2022/08/21 00:19:16;;;;;;;13.02;1.73;;;16.50;99.90;;;;;;4976960;28;20088;-69
2022/08/21 00:21:42;;;;;;;5.60;1.60;;;16.50;99.90;;;;;;4977488;28;20045;-68
2022/08/21 00:24:08;;;;;;;4.30;1.60;;;16.40;99.90;;;;;;4980490;28;20031;-68
2022/08/21 00:26:34;;;;;;;5.78;1.38;;;16.40;99.90;;;;;;4989992;28;20026;-69
2022/08/21 00:28:59;;;;;;;6.05;1.15;;;16.40;99.90;;;;;;5016810;28;20042;-68
2022/08/21 00:31:25;;;;;;;5.65;1.60;;;16.40;99.90;;;;;;4980874;28;20062;-67
2022/08/21 00:33:51;;;;;;;4.13;1.45;;;16.40;99.90;;;;;;5012498;28;20495;-69
2022/08/21 00:36:17;;;;;;;5.00;1.33;;;16.40;99.90;;;;;;4994247;28;20070;-69
2022/08/21 00:38:42;;;;;;;4.25;1.75;;;16.40;99.90;;;;;;4985199;28;20030;-68
2022/08/21 00:41:11;;;;;;;4.00;1.25;;;16.40;99.90;;;;;;4980516;28;20042;-70
2022/08/21 00:43:38;;;;;;;4.07;1.50;;;16.40;99.90;;;;;;4976405;28;20042;-70
2022/08/21 00:46:05;;;;;;;3.90;1.10;;;16.40;99.90;;;;;;4977797;28;20034;-68
2022/08/21 00:48:33;;;;;;;3.05;1.20;;;16.30;99.90;;;;;;4978566;28;20034;-69
2022/08/21 00:51:03;;;;;;;5.97;1.50;;;16.30;99.90;;;;;;4974649;28;20027;-67
2022/08/21 00:53:30;;;;;;;7.45;1.20;;;16.30;99.90;;;;;;4978221;28;20030;-69
2022/08/21 00:55:56;;;;;;;3.13;1.15;;;16.30;99.90;;;;;;4974679;28;20463;-68
2022/08/21 00:58:23;;;;;;;5.65;1.60;;;16.30;99.90;;;;;;4979669;28;20030;-69
2022/08/21 01:00:50;;;;;;;6.72;1.52;;;16.30;99.90;;;;;;4981908;28;20034;-68
2022/08/21 01:03:22;;;;;;;7.70;1.52;;;16.30;99.90;;;;;;4982242;28;20031;-69
2022/08/21 01:05:48;;;;;;;3.03;1.20;;;16.30;99.90;;;;;;4985728;28;20042;-68
2022/08/21 01:08:16;;;;;;;5.10;1.30;;;16.20;99.90;;;;;;4988920;28;20036;-68
2022/08/21 01:10:43;;;;;;;7.28;1.90;;;16.30;99.90;;;;;;4985486;28;20056;-68
2022/08/21 01:13:11;;;;;;;4.82;1.60;;;16.30;99.90;;;;;;4978742;28;20113;-68
2022/08/21 01:15:41;;;;;;;7.32;1.80;;;16.20;99.90;;;;;;5008549;28;20114;-72
2022/08/21 01:18:08;;;;;;;;;;;16.30;99.90;;;;;;4977800;28;20558;-68
2022/08/21 01:20:36;;;;;;;6.40;1.50;;;16.30;99.90;;;;;;4978165;28;19972;-67
2022/08/21 01:23:04;;;;;;;7.53;2.15;;;16.20;99.90;;;;;;4976610;28;20033;-68
2022/08/21 01:25:31;;;;;;;3.60;1.33;;;16.20;99.90;;;;;;4980911;28;20592;-67
2022/08/21 01:27:58;;;;;;;3.83;1.45;;;16.20;99.90;;;;;;4978915;28;20434;-68
2022/08/21 01:30:27;;;;;;;5.20;1.13;;;16.20;99.90;;;;;;4974371;28;20066;-68
2022/08/21 01:32:53;;;;;;;4.00;1.45;;;16.20;99.90;;;;;;4978344;28;20026;-69
2022/08/21 01:35:20;;;;;;;4.22;1.13;;;16.10;99.90;;;;;;4986064;28;20042;-69
2022/08/21 01:37:45;;;;;;;3.85;1.67;;;16.10;99.90;;;;;;4975906;28;20030;-69
2022/08/21 01:40:13;;;;;;;5.07;1.20;;;16.10;99.90;;;;;;4977722;28;20045;-68
2022/08/21 01:42:40;;;;;;;1.70;1.00;;;16.10;99.90;;;;;;4975431;28;20054;-69
2022/08/21 01:45:07;;;;;;;3.65;1.40;;;16.10;99.90;;;;;;4976045;28;20459;-69
2022/08/21 01:47:33;;;;;;;6.55;1.10;;;16.20;99.90;;;;;;5008190;28;20435;-70
2022/08/21 01:50:00;;;;;;;5.63;1.65;;;16.20;99.90;;;;;;4974578;28;20109;-70
2022/08/21 01:52:25;;;;;;;4.05;2.10;;;16.20;99.90;;;;;;4977128;28;20121;-69
2022/08/21 01:54:51;;;;;;;2.72;1.10;;;16.10;99.90;;;;;;4983024;28;20529;-69
2022/08/21 01:57:17;;;;;;;3.75;1.85;;;16.10;99.90;;;;;;4984116;28;20052;-69
2022/08/21 01:59:43;;;;;;;2.92;1.45;;;16.10;99.90;;;;;;4977981;28;20772;-68
2022/08/21 02:02:09;;;;;;;8.55;1.90;;;16.10;99.90;;;;;;4977150;28;20042;-70
2022/08/21 02:04:35;;;;;;;3.80;1.20;;;16.00;99.90;;;;;;4976366;28;20037;-68
2022/08/21 02:07:01;;;;;;;6.72;1.55;;;16.00;99.90;;;;;;4975839;28;20046;-69
2022/08/21 02:09:27;;;;;;;4.97;1.60;;;16.00;99.90;;;;;;4983739;28;20038;-69
2022/08/21 02:11:53;;;;;;;7.20;1.40;;;15.90;99.90;;;;;;4975148;28;20046;-69
2022/08/21 02:14:19;;;;;;;5.00;1.20;;;15.90;99.90;;;;;;4977198;28;20034;-68
2022/08/21 02:16:44;;;;;;;2.92;0.95;;;15.90;99.90;;;;;;4975116;28;20737;-68
2022/08/21 02:19:12;;;;;;;11.88;2.38;;;15.90;99.90;;;;;;4982251;28;20054;-68
2022/08/21 02:21:37;;;;;;;4.38;0.90;;;15.90;99.90;;;;;;4980300;28;20463;-72
2022/08/21 02:24:04;;;;;;;6.15;1.63;;;15.80;99.90;;;;;;4982119;28;20471;-66
2022/08/21 02:26:30;;;;;;;6.15;2.33;;;15.90;99.90;;;;;;4980800;28;20034;-69
2022/08/21 02:28:55;;;;;;;5.07;1.83;;;15.80;99.90;;;;;;4978236;28;20173;-68
2022/08/21 02:31:21;;;;;;;6.47;2.17;;;15.80;99.90;;;;;;4974348;28;20114;-69
2022/08/21 02:33:47;;;;;;;5.95;1.90;;;15.80;99.90;;;;;;4975803;28;20495;-69
2022/08/21 02:36:13;;;;;;;4.30;1.50;;;15.80;99.90;;;;;;4982417;28;20030;-66
2022/08/21 02:38:41;;;;;;;6.18;1.63;;;15.80;99.90;;;;;;4974790;28;20068;-69
2022/08/21 02:41:10;;;;;;;3.90;1.17;;;15.80;99.90;;;;;;4977197;28;20487;-68
2022/08/21 02:43:35;;;;;;;4.90;1.52;;;15.80;99.90;;;;;;4981337;28;20022;-68
2022/08/21 02:46:03;;;;;;;8.02;1.60;;;15.80;99.90;;;;;;4983353;28;20038;-69
2022/08/21 02:48:30;;;;;;;5.15;1.73;;;15.80;99.90;;;;;;4982055;28;20110;-69
2022/08/21 02:51:02;;;;;;;6.20;2.05;;;15.80;99.90;;;;;;4975970;28;20071;-69
2022/08/21 02:53:30;;;;;;;4.68;2.00;;;15.80;99.90;;;;;;4982518;28;20029;-69
2022/08/21 02:55:58;;;;;;;5.40;1.52;;;15.70;99.90;;;;;;4981606;28;20042;-68
2022/08/21 02:58:31;;;;;;;6.57;1.88;;;15.80;99.90;;;;;;4975374;28;20023;-69
2022/08/21 03:00:58;;;;;;;4.90;1.65;;;15.70;99.90;;;;;;4973825;28;20499;-69
2022/08/21 03:03:24;;;;;;;5.43;2.05;;;15.70;99.90;;;;;;4975670;28;20030;-68
2022/08/21 03:05:50;;;;;;;6.20;1.40;;;15.70;99.90;;;;;;4978866;28;20049;-67
2022/08/21 03:08:17;;;;;;;5.75;1.55;;;15.70;99.90;;;;;;4981102;28;20030;-67
2022/08/21 03:10:46;;;;;;;3.22;1.50;;;15.70;99.90;;;;;;4983769;28;20461;-68
2022/08/21 03:13:12;;;;;;;5.72;1.83;;;15.70;99.90;;;;;;4983812;28;20042;-69
2022/08/21 03:15:38;;;;;;;8.00;1.63;;;15.60;99.90;;;;;;4985044;28;20913;-69
2022/08/21 03:18:05;;;;;;;6.97;1.70;;;15.60;99.90;;;;;;4979950;28;20038;-68
2022/08/21 03:20:32;;;;;;;5.85;1.58;;;15.60;99.90;;;;;;4979992;28;20046;-67
2022/08/21 03:22:58;;;;;;;5.47;1.33;;;15.60;99.90;;;;;;5009896;28;20108;-68
2022/08/21 03:25:26;;;;;;;7.15;1.98;;;15.60;99.90;;;;;;4984569;28;20184;-70
2022/08/21 03:27:51;;;;;;;8.35;1.65;;;15.60;99.90;;;;;;4979690;28;20046;-67
2022/08/21 03:30:19;;;;;;;7.43;1.60;;;15.60;99.90;;;;;;4980854;28;20257;-69
2022/08/21 03:32:46;;;;;;;4.55;1.52;;;15.60;99.90;;;;;;4975306;28;20333;-67
2022/08/21 03:35:12;;;;;;;5.68;2.08;;;15.50;99.90;;;;;;4985243;28;20125;-69
2022/08/21 03:37:38;;;;;;;11.02;2.13;;;15.50;99.90;;;;;;4977381;28;20117;-70
2022/08/21 03:40:06;;;;;;;5.30;1.92;;;15.50;99.90;;;;;;4980140;28;20035;-69
2022/08/21 03:42:32;;;;;;;7.20;1.40;;;15.50;99.90;;;;;;4976422;28;20508;-69
2022/08/21 03:44:58;;;;;;;5.85;1.48;;;15.50;99.90;;;;;;4978921;28;20502;-69
2022/08/21 03:47:24;;;;;;;4.75;1.88;;;15.40;99.90;;;;;;4979411;28;20062;-69
2022/08/21 03:49:50;;;;;;;6.00;1.67;;;15.40;99.90;;;;;;4976476;28;20078;-68
2022/08/21 03:52:16;;;;;;;6.65;1.50;;;15.40;99.90;;;;;;4984254;28;20403;-68
2022/08/21 03:54:42;;;;;;;6.00;1.95;;;15.40;99.90;;;;;;4987874;28;20503;-70
2022/08/21 03:57:09;;;;;;;4.18;2.00;;;15.30;99.90;;;;;;4978898;28;20506;-68
2022/08/21 03:59:35;;;;;;;5.57;1.77;;;15.30;99.90;;;;;;5009440;28;20039;-69
2022/08/21 04:02:03;;;;;;;4.90;2.25;;;15.30;99.90;;;;;;4979406;28;20035;-68
2022/08/21 04:04:29;;;;;;;10.13;2.40;;;15.30;99.90;;;;;;4977589;28;20121;-69
2022/08/21 04:06:55;;;;;;;5.82;2.17;;;15.30;99.90;;;;;;4976562;28;20035;-68
2022/08/21 04:09:22;;;;;;;8.15;2.28;;;15.30;99.90;;;;;;5013481;28;20049;-69
2022/08/21 04:11:47;;;;;;;10.02;2.47;;;15.30;99.90;;;;;;4979285;28;20047;-69
2022/08/21 04:14:14;;;;;;;8.57;2.38;;;15.30;99.90;;;;;;4980929;28;20038;-69
2022/08/21 04:16:40;;;;;;;6.47;2.30;;;15.30;99.90;;;;;;4979614;28;20406;-69
2022/08/21 04:19:07;;;;;;;10.00;3.22;;;15.30;99.90;;;;;;4976552;28;20030;-69
2022/08/21 04:21:33;;;;;;;5.28;2.40;;;15.30;99.90;;;;;;4981341;28;20034;-68
2022/08/21 04:23:59;;;;;;;5.82;1.80;;;15.30;99.90;;;;;;4985779;28;20027;-68
2022/08/21 04:26:26;;;;;;;7.50;2.75;;;15.20;99.90;;;;;;4992399;28;20041;-68
2022/08/21 04:28:52;;;;;;;6.78;2.00;;;15.20;99.90;;;;;;4982401;28;20546;-67
2022/08/21 04:31:18;;;;;;;7.85;2.25;;;15.20;99.90;;;;;;4983274;28;20027;-66
2022/08/21 04:33:44;;;;;;;14.95;2.25;;;15.30;99.90;;;;;;4979708;28;20111;-69
2022/08/21 04:36:10;;;;;;;8.98;2.65;;;15.20;99.90;;;;;;4986606;28;20061;-69
2022/08/21 04:38:37;;;;;;;6.95;2.22;;;15.20;99.90;;;;;;4977354;28;20030;-69
2022/08/21 04:41:02;;;;;;;7.78;2.72;;;15.20;99.90;;;;;;4979068;28;20049;-67
2022/08/21 04:43:28;;;;;;;14.52;3.40;;;15.20;99.90;;;;;;4975101;28;20034;-68
2022/08/21 04:45:54;;;;;;;7.53;1.80;;;15.20;99.90;;;;;;4976521;28;20023;-68
2022/08/21 04:48:22;;;;;;;5.95;2.58;;;15.20;99.90;;;;;;4978149;28;20521;-69
2022/08/21 04:51:09;;;;;;;7.07;2.70;;;15.10;99.90;;;;;;4975258;28;20042;-68
2022/08/21 04:53:47;;;;;;;6.75;2.35;;;15.20;99.90;;;;;;4979761;28;20089;-68
2022/08/21 04:56:23;;;;;;;12.27;2.75;;;15.10;99.90;;;;;;4979772;28;20041;-67
2022/08/21 04:58:52;;;;;;;9.13;2.22;;;15.20;99.90;;;;;;4976872;28;20050;-68
2022/08/21 05:01:21;;;;;;;9.63;2.20;;;15.20;99.90;;;;;;5009016;28;20113;-67
2022/08/21 05:03:50;;;;;;;4.97;2.47;;;15.10;99.90;;;;;;4976264;28;20483;-69
2022/08/21 05:06:16;;;;;;;6.47;2.83;;;15.20;99.90;;;;;;4978317;28;20126;-67
2022/08/21 05:08:44;;;;;;;11.25;2.80;;;15.20;99.90;;;;;;5006785;28;20030;-69
2022/08/21 05:11:10;;;;;;;5.75;2.25;;;15.20;99.90;;;;;;4978937;28;20399;-68
2022/08/21 05:13:36;;;;;;;9.20;2.33;;;15.10;99.90;;;;;;4978768;28;20034;-68
2022/08/21 05:16:02;;;;;;;6.55;2.05;;;15.20;99.90;;;;;;4976200;28;20046;-68
2022/08/21 05:18:27;;;;;;;8.75;2.42;;;15.20;99.90;;;;;;4977818;28;20031;-69
2022/08/21 05:20:53;;;;;;;9.02;2.22;;;15.20;99.90;;;;;;4977071;28;20041;-68
2022/08/21 05:23:18;;;;;;;6.47;2.30;;;15.20;99.90;;;;;;4974706;28;20062;-67
2022/08/21 05:25:44;;;;;;;7.93;2.08;;;15.20;99.90;;;;;;5015510;28;20031;-69
2022/08/21 05:28:10;;;;;;;9.18;2.10;;;15.20;99.90;;;;;;5005605;28;20446;-68
2022/08/21 05:30:37;;;;;;;11.30;2.42;;;15.20;99.90;;;;;;4979295;28;20130;-68
2022/08/21 05:33:04;;;;;;;7.13;2.30;;;15.30;99.90;;;;;;4974970;28;20077;-68
2022/08/21 05:35:31;;;;;;;8.10;2.05;;;15.30;99.90;;;;;;4979771;28;20132;-69
2022/08/21 05:37:58;;;;;;;4.60;1.90;;;15.40;99.90;;;;;;4976383;28;20450;-68
2022/08/21 05:40:24;;;;;;;7.05;2.28;;;15.40;99.90;;;;;;4976854;28;20038;-68
2022/08/21 05:42:53;;;;;;;5.60;1.83;;;15.40;99.90;;;;;;4976968;28;20121;-68
2022/08/21 05:45:21;;;;;;;11.33;2.10;;;15.50;99.90;;;;;;4977907;28;20083;-69
2022/08/21 05:47:46;;;;;;;7.40;2.60;;;15.50;99.90;;;;;;4979197;28;20308;-68
2022/08/21 05:50:12;;;;;;;8.25;2.00;;;15.50;99.90;;;;;;4979036;28;20050;-69
2022/08/21 05:52:38;;;;;;;5.18;2.17;;;15.60;99.90;;;;;;5011614;28;20040;-69
2022/08/21 05:55:04;;;;;;;6.78;1.85;;;15.60;99.90;;;;;;4975706;28;20117;-68
2022/08/21 05:57:29;;;;;;;8.20;2.47;;;15.70;99.90;;;;;;4978449;28;20160;-69
2022/08/21 05:59:55;;;;;;;7.28;2.30;;;15.70;99.90;;;;;;4983609;28;20097;-70
2022/08/21 06:02:21;;;;;;;8.70;2.20;;;15.80;99.90;;;;;;4990943;28;20403;-68
2022/08/21 06:04:47;;;;;;;6.95;2.50;;;15.90;99.90;;;;;;4989593;28;20093;-69
2022/08/21 06:07:14;;;;;;;6.72;2.00;;;15.90;99.90;;;;;;4983149;28;20039;-67
2022/08/21 06:09:39;;;;;;;4.53;1.65;;;16.00;99.90;;;;;;4985491;28;20089;-69
2022/08/21 06:12:08;;;;;;;5.57;1.83;;;16.10;99.90;;;;;;4986674;28;20038;-68
2022/08/21 06:14:34;;;;;;;7.25;2.85;;;16.20;99.90;;;;;;4983846;28;20049;-67
2022/08/21 06:17:04;;;;;;;6.15;2.30;;;16.30;99.90;;;;;;4977173;28;20054;-69
2022/08/21 06:19:30;;;;;;;5.70;1.60;;;16.40;99.90;;;;;;4977807;28;20049;-69
2022/08/21 06:21:55;;;;;;;9.27;2.08;;;16.50;99.90;;;;;;4975740;28;20046;-68
2022/08/21 06:24:21;;;;;;;7.35;1.95;;;16.60;99.90;;;;;;4976314;28;20030;-69
2022/08/21 06:26:47;;;;;;;5.90;1.83;;;16.90;99.90;;;;;;4982753;28;20039;-68
2022/08/21 06:29:16;;;;;;;6.93;1.92;;;17.10;99.90;;;;;;4976894;28;20038;-69
2022/08/21 06:31:41;;;;;;;5.60;2.10;;;17.50;99.90;;;;;;4972933;28;20039;-72
2022/08/21 06:34:07;;;;;;;7.22;2.20;;;17.80;99.90;;;;;;4976993;28;20041;-71
2022/08/21 06:36:33;;;;;;;5.22;1.90;;;18.10;99.90;;;;;;4976446;28;20069;-69
2022/08/21 06:38:58;;;;;;;11.45;1.50;;;18.70;99.90;;;;;;4974707;28;20125;-70
2022/08/21 06:41:24;;;;;;;6.20;1.63;;;19.50;99.90;;;;;;4974329;28;20045;-69
2022/08/21 06:43:50;;;;;;;4.45;1.38;;;20.70;99.90;;;;;;4975170;28;20469;-68
2022/08/21 06:46:15;;;;;;;7.93;1.42;;;22.00;99.90;;;;;;4975770;28;20097;-68
2022/08/21 06:48:41;;;;;;;4.88;1.67;;;23.20;99.90;;;;;;4974683;28;20045;-70
2022/08/21 06:51:07;;;;;;;8.00;2.33;;;24.30;99.90;;;;;;4976844;28;20034;-72
2022/08/21 06:53:33;;;;;;;8.77;1.90;;;25.10;99.90;;;;;;4973455;28;20074;-70
2022/08/21 06:55:58;;;;;;;12.70;2.08;;;26.00;99.40;;;;;;4976698;28;20038;-70
2022/08/21 06:58:24;;;;;;;4.28;1.60;;;26.50;98.30;;;;;;4974829;28;20050;-69
2022/08/21 07:00:54;;;;;;;5.43;1.52;;;27.10;97.30;;;;;;4975814;28;20094;-69
2022/08/21 07:03:41;;;;;;;3.72;1.70;;;27.60;96.00;;;;;;4974090;28;20486;-71
2022/08/21 07:06:09;;;;;;;5.88;1.80;;;27.70;95.80;;;;;;4980074;28;20518;-71
2022/08/21 07:08:35;;;;;;;6.82;2.13;;;27.90;95.30;;;;;;4974021;28;20495;-70
2022/08/21 07:11:04;;;;;;;8.88;2.47;;;27.70;94.50;;;;;;4976450;28;20038;-70
2022/08/21 07:13:29;;;;;;;6.03;2.28;;;27.40;94.70;;;;;;4974904;28;20085;-72
2022/08/21 07:15:56;;;;;;;7.15;2.20;;;26.70;95.20;;;;;;4973941;28;20503;-72
2022/08/21 07:18:21;;;;;;;8.10;1.58;;;25.90;95.60;;;;;;4974031;28;20038;-71
2022/08/21 07:20:47;;;;;;;6.90;1.65;;;25.10;96.80;;;;;;5005726;28;20041;-72
2022/08/21 07:23:24;;;;;;;5.22;1.27;;;24.30;98.00;;;;;;4974151;28;20058;-70
2022/08/21 07:25:49;;;;;;;7.63;1.85;;;23.60;99.10;;;;;;4979575;28;20026;-69
2022/08/21 07:28:15;;;;;;;8.10;2.03;;;23.00;99.90;;;;;;4973392;28;20026;-69
2022/08/21 07:30:41;;;;;;;6.55;1.70;;;22.70;99.90;;;;;;4973137;28;20078;-69
2022/08/21 07:33:07;;;;;;;9.00;2.22;;;22.40;99.90;;;;;;4975582;28;20035;-68
2022/08/21 07:35:33;;;;;;;12.68;2.40;;;22.10;99.90;;;;;;4977444;28;20046;-69
2022/08/21 07:37:59;;;;;;;7.65;1.88;;;22.00;99.90;;;;;;4976537;28;20067;-68
2022/08/21 07:40:25;;;;;;;7.00;1.83;;;21.70;99.90;;;;;;4973743;28;20050;-68
2022/08/21 07:42:51;;;;;;;6.45;1.77;;;21.60;99.90;;;;;;4974815;28;20034;-68
2022/08/21 07:45:24;;;;;;;10.88;2.63;;;21.30;99.90;;;;;;4974427;28;20518;-68
2022/08/21 07:47:50;;;;;;;11.90;1.73;;;21.10;99.90;;;;;;4975560;28;20034;-68
2022/08/21 07:50:16;;;;;;;5.55;1.55;;;20.90;99.90;;;;;;4974127;28;20525;-68
2022/08/21 07:52:42;;;;;;;6.32;2.17;;;20.90;99.90;;;;;;4974078;28;20131;-68
2022/08/21 07:55:11;;;;;;;7.20;1.90;;;20.90;99.90;;;;;;4983008;28;20034;-68
2022/08/21 07:57:37;;;;;;;12.00;1.88;;;20.90;99.90;;;;;;4976607;28;20109;-68
2022/08/21 08:00:08;;;;;;;5.53;1.88;;;21.10;99.90;;;;;;4974900;28;20507;-68
2022/08/21 08:02:34;;;;;;;9.18;1.80;;;21.20;99.90;;;;;;4976654;28;20332;-66
2022/08/21 08:05:03;;;;;;;8.55;1.83;;;21.10;99.90;;;;;;4974563;28;20039;-68
2022/08/21 08:07:28;;;;;;;6.57;1.60;;;20.90;99.90;;;;;;5008798;28;20050;-69
2022/08/21 08:09:54;;;;;;;6.57;1.38;;;20.90;99.90;;;;;;4982041;28;20038;-69
2022/08/21 08:12:20;;;;;;;5.47;1.48;;;21.00;99.90;;;;;;4975349;28;20491;-66
2022/08/21 08:14:46;;;;;;;8.60;1.73;;;21.10;99.90;;;;;;4981085;28;20045;-70
2022/08/21 08:17:13;;;;;;;13.25;1.90;;;21.20;99.90;;;;;;4984360;28;20072;-67
2022/08/21 08:19:38;;;;;;;10.65;2.08;;;21.30;99.90;;;;;;4985744;28;20062;-69
2022/08/21 08:22:14;;;;;;;8.73;2.10;;;21.40;99.90;;;;;;4984966;28;20061;-68
2022/08/21 08:24:39;;;;;;;9.50;1.80;;;21.40;99.90;;;;;;4985504;28;20034;-69
2022/08/21 08:27:05;;;;;;;8.50;2.20;;;21.30;99.90;;;;;;4987720;28;20104;-69
2022/08/21 08:29:31;;;;;;;6.78;1.90;;;21.50;99.90;;;;;;5012688;28;20495;-67
2022/08/21 08:31:57;;;;;;;4.90;1.48;;;21.60;99.90;;;;;;4982438;28;20042;-68
2022/08/21 08:34:23;;;;;;;7.13;1.70;;;21.70;99.90;;;;;;4985608;28;20052;-67
2022/08/21 08:36:48;;;;;;;12.15;1.95;;;21.80;99.90;;;;;;4985059;28;20442;-69
2022/08/21 08:39:14;;;;;;;11.15;1.73;;;22.00;99.90;;;;;;4985715;28;20056;-69
2022/08/21 08:41:42;;;;;;;5.35;1.58;;;22.20;99.90;;;;;;4986024;28;20030;-68
2022/08/21 08:44:08;;;;;;;4.78;1.23;;;22.30;99.90;;;;;;4982950;28;20573;-67
2022/08/21 08:46:51;;;;;;;8.50;1.20;;;22.30;99.90;;;;;;4985367;28;20517;-68
2022/08/21 08:49:27;;;;;;;5.43;1.40;;;22.10;99.90;;;;;;4984493;28;20402;-69
2022/08/21 08:51:57;;;;;;;11.57;1.90;;;22.10;99.90;;;;;;4985633;28;20058;-68
2022/08/21 08:54:34;;;;;;;8.57;1.50;;;22.10;99.90;;;;;;4984736;28;20521;-69
2022/08/21 08:57:02;;;;;;;6.43;1.33;;;22.30;99.90;;;;;;4984546;28;20438;-68
2022/08/21 08:59:38;;;;;;;8.07;1.40;;;22.40;99.90;;;;;;4985413;28;20117;-68
2022/08/21 09:02:05;;;;;;;4.72;1.25;;;22.60;99.90;;;;;;4983834;28;20045;-69
2022/08/21 09:04:31;;;;;;;5.88;1.30;;;22.90;99.90;;;;;;5010385;28;20165;-68
2022/08/21 09:07:38;;;;;;;7.97;1.27;;;23.00;99.90;;;;;;4985026;28;20113;-68
2022/08/21 09:10:13;;;;;;;6.20;1.00;;;23.20;99.90;;;;;;4964004;28;20093;-67
2022/08/21 09:12:59;;;;;;;7.90;1.50;;;23.10;99.90;;;;;;4983708;28;20046;-69
2022/08/21 09:15:36;;;;;;;7.28;1.30;;;23.10;99.90;;;;;;4977537;28;20447;-68
2022/08/21 09:18:07;;;;;;;4.57;1.13;;;23.00;99.90;;;;;;4984828;28;20514;-69
2022/08/21 09:20:50;;;;;;;8.48;1.27;;;23.00;99.90;;;;;;4977184;28;20050;-68
2022/08/21 09:23:28;;;;;;;5.88;0.93;;;23.00;99.90;;;;;;5005642;28;20070;-67
2022/08/21 09:26:11;;;;;;;9.25;1.63;;;23.20;99.90;;;;;;5010726;28;20093;-70
2022/08/21 09:28:38;;;;;;;5.15;0.90;;;23.50;99.90;;;;;;4978718;28;20095;-69
2022/08/21 09:31:07;;;;;;;8.52;1.27;;;23.80;99.90;;;;;;4974143;28;20470;-69
2022/08/21 09:33:33;;;;;;;6.63;1.05;;;23.90;99.90;;;;;;4976576;28;20034;-70
2022/08/21 09:35:59;;;;;;;2.88;1.02;;;23.80;99.90;;;;;;4982524;28;20439;-70
2022/08/21 09:38:34;;;;;;;6.65;1.10;;;23.70;99.90;;;;;;4978903;28;20035;-70
2022/08/21 09:41:08;;;;;;;5.55;0.90;;;23.50;99.90;;;;;;4979351;28;20060;-69
2022/08/21 09:43:35;;;;;;;7.53;1.48;;;23.40;99.90;;;;;;4974343;28;20746;-69
2022/08/21 09:46:22;;;;;;;4.68;0.95;;;23.40;99.90;;;;;;4975986;28;20038;-68
2022/08/21 09:48:51;;;;;;;9.05;1.50;;;23.40;99.90;;;;;;4974118;28;20534;-68
2022/08/21 09:51:26;;;;;;;9.75;1.52;;;23.40;99.90;;;;;;4976519;28;20089;-67
2022/08/21 09:54:11;;;;;;;5.30;1.02;;;23.40;99.90;;;;;;4978786;28;20065;-68
2022/08/21 09:59:34;;;;;;;5.32;0.77;;;23.80;99.90;;;;;;4983033;28;20100;-68
2022/08/21 10:02:13;;;;;;;6.75;0.95;;;24.20;99.90;;;;;;4984941;28;20026;-68
2022/08/21 10:04:41;;;;;;;3.42;1.13;;;24.30;99.90;;;;;;4982601;28;20407;-68
2022/08/21 10:07:08;;;;;;;5.68;1.10;;;24.40;99.90;;;;;;4985169;28;20026;-68
2022/08/21 10:09:34;;;;;;;3.47;0.90;;;24.60;99.40;;;;;;4984200;28;20038;-69
2022/08/21 10:12:12;;;;;;;7.90;1.27;;;24.80;99.10;;;;;;4984260;28;20431;-68
2022/08/21 10:15:20;;;;;;;5.78;0.73;;;24.80;98.90;;;;;;4982068;28;20098;-69
2022/08/21 10:18:10;;;;;;;2.83;0.88;;;25.00;98.40;;;;;;4973605;28;20035;-69
2022/08/21 10:20:52;;;;;;;7.43;1.60;;;25.00;98.00;;;;;;4976722;28;20044;-69
2022/08/21 10:23:43;;;;;;;14.80;1.48;;;25.00;98.10;;;;;;4976396;28;20121;-68
2022/08/21 10:26:43;;;;;;;9.82;1.77;;;25.00;97.30;;;;;;4980857;28;20034;-69
2022/08/21 10:29:38;;;;;;;7.93;1.33;;;24.90;97.00;;;;;;4978350;28;20065;-67
2022/08/21 10:32:19;;;;;;;4.55;0.60;;;24.90;96.40;;;;;;4978990;28;20082;-69
2022/08/21 10:35:11;;;;;;;6.78;1.45;;;24.90;96.30;;;;;;4979652;28;20062;-69
2022/08/21 10:37:49;;;;;;;2.88;0.40;;;25.00;96.40;;;;;;4978267;28;20499;-69
2022/08/21 10:40:29;;;;;;;3.35;0.98;;;25.10;96.00;;;;;;4975898;28;20124;-69
2022/08/21 10:43:10;;;;;;;6.63;1.35;;;25.20;95.60;;;;;;4979052;28;20050;-69
2022/08/21 10:46:00;;;;;;;6.30;1.27;;;25.30;95.70;;;;;;4985236;28;20038;-69
2022/08/21 10:48:41;;;;;;;;;;;25.40;95.30;;;;;;4983227;28;20037;-68
2022/08/21 10:51:32;;;;;;;3.95;0.82;;;25.40;95.50;;;;;;4975722;28;19962;-69
2022/08/21 10:54:08;;;;;;;4.53;0.95;;;25.30;95.60;;;;;;4978664;28;20113;-67
2022/08/21 10:56:38;;;;;;;4.63;1.00;;;25.30;95.70;;;;;;4975496;28;20023;-69
2022/08/21 10:59:12;;;;;;;;;;;25.20;96.10;;;;;;4984061;28;20037;-69
2022/08/21 11:01:54;;;;;;;4.45;0.50;;;25.10;96.10;;;;;;4982348;28;19913;-69
2022/08/21 11:04:31;;;;;;;9.75;1.30;;;24.80;96.50;;;;;;4977149;28;20034;-68
2022/08/21 11:07:21;;;;;;;10.23;1.05;;;24.70;96.70;;;;;;4978343;28;20055;-66
2022/08/21 11:09:49;;;;;;;4.30;0.80;;;24.40;97.00;;;;;;4976885;28;20386;-68
2022/08/21 11:12:40;;;;;;;4.80;0.98;;;24.20;97.30;;;;;;4976881;28;20027;-69
2022/08/21 11:15:45;;;;;;;1.90;0.55;;;23.90;97.40;;;;;;4980036;28;20030;-69
2022/08/21 11:18:22;;;;;;;2.67;0.93;;;23.90;98.10;;;;;;4973318;28;20069;-69
2022/08/21 11:21:08;;;;;;;3.95;0.63;;;24.10;98.00;;;;;;4976979;28;20054;-69
2022/08/21 11:23:43;;;;;;;5.80;1.00;;;24.30;97.30;;;;;;5006008;28;20410;-69
2022/08/21 11:26:17;;;;;;;5.65;0.52;;;24.50;97.60;;;;;;4980083;28;20038;-67
2022/08/21 11:28:50;;;;;;;7.95;1.17;;;24.60;97.30;;;;;;4980202;28;20041;-68
2022/08/21 11:31:35;;;;;;;3.88;0.80;;;24.80;97.00;;;;;;4983976;28;20032;-66
2022/08/21 11:34:18;;;;;;;4.30;1.02;;;25.00;96.70;;;;;;4980922;28;20042;-70
2022/08/21 11:37:08;;;;;;;3.70;1.10;;;25.00;96.40;;;;;;4981194;28;20026;-69
2022/08/21 11:40:05;;;;;;;4.70;0.63;;;24.90;95.80;;;;;;4982588;28;20503;-69
2022/08/21 11:42:53;;;;;;;3.25;0.75;;;24.80;96.30;;;;;;4978313;28;20035;-69
2022/08/21 11:45:43;;;;;;;6.28;1.13;;;24.70;96.30;;;;;;5007994;28;20411;-69
2022/08/21 11:48:28;;;;;;;1.73;0.55;;;24.60;96.40;;;;;;4975942;28;20519;-68
2022/08/21 11:50:56;;;;;;;4.22;0.52;;;24.80;96.20;;;;;;4979626;28;20499;-70
2022/08/21 11:53:29;;;;;;;5.85;1.23;;;24.80;96.00;;;;;;4986650;28;20041;-69
2022/08/21 11:56:06;;;;;;;7.97;1.00;;;24.80;96.40;;;;;;4984878;28;20038;-70
2022/08/21 11:58:51;;;;;;;4.35;0.80;;;24.90;96.20;;;;;;4985325;28;20026;-69
2022/08/21 12:01:32;;;;;;;8.57;0.93;;;24.90;95.50;;;;;;4986931;28;20041;-67
2022/08/21 12:04:04;;;;;;;3.75;0.57;;;25.00;95.60;;;;;;4985533;28;20042;-67
2022/08/21 12:06:39;;;;;;;3.20;0.80;;;24.90;95.20;;;;;;4986723;28;20113;-69
2022/08/21 12:09:24;;;;;;;1.55;0.60;;;24.90;95.30;;;;;;4988618;28;20042;-69
2022/08/21 12:11:59;;;;;;;5.93;1.05;;;24.90;95.30;;;;;;4981378;28;20082;-69
2022/08/21 12:14:40;;;;;;;9.35;1.40;;;25.00;94.80;;;;;;4985509;28;20046;-71
2022/08/21 12:17:09;;;;;;;4.60;0.80;;;25.10;94.80;;;;;;4984034;28;20034;-69
2022/08/21 12:19:35;;;;;;;3.10;1.23;;;25.10;95.10;;;;;;4987541;28;20027;-69
2022/08/21 12:22:03;;;;;;;5.57;1.23;;;25.00;95.40;;;;;;4979417;28;20042;-68
2022/08/21 12:24:37;;;;;;;6.07;1.02;;;25.00;95.50;;;;;;5006465;28;20042;-68
2022/08/21 12:27:26;;;;;;;5.47;0.95;;;24.80;95.60;;;;;;4985074;28;20043;-67
2022/08/21 12:30:04;;;;;;;4.65;1.02;;;24.60;95.80;;;;;;4979268;28;20031;-68
2022/08/21 12:32:42;;;;;;;5.88;0.80;;;24.40;96.10;;;;;;4979434;28;20088;-67
2022/08/21 12:35:19;;;;;;;3.80;0.93;;;24.30;96.70;;;;;;5005151;28;20043;-69
2022/08/21 12:37:56;;;;;;;6.97;0.95;;;24.30;96.50;;;;;;4974759;28;20081;-68
2022/08/21 12:40:36;;;;;;;3.80;1.10;;;24.40;96.60;;;;;;4977558;28;20106;-68
2022/08/21 12:43:04;;;;;;;3.08;0.60;;;24.50;96.20;;;;;;4979519;28;20038;-68
2022/08/21 12:45:48;;;;;;;4.30;0.90;;;24.50;95.80;;;;;;4987870;28;20042;-70
2022/08/21 12:48:30;;;;;;;4.15;0.88;;;24.50;95.50;;;;;;4977551;28;20057;-67
2022/08/21 12:51:07;;;;;;;4.60;0.60;;;24.30;96.10;;;;;;4983418;28;20705;-68
2022/08/21 12:53:47;;;;;;;3.38;1.08;;;24.30;96.20;;;;;;4982347;28;20033;-69
2022/08/21 12:56:19;;;;;;;4.07;0.88;;;24.30;96.50;;;;;;4981647;28;20069;-69
2022/08/21 12:58:56;;;;;;;8.73;1.38;;;24.30;96.50;;;;;;4981457;28;20117;-68
2022/08/21 13:01:36;;;;;;;4.78;0.80;;;24.30;95.80;;;;;;4977223;28;20031;-68
2022/08/21 13:04:07;;;;;;;1.67;0.47;;;24.40;95.70;;;;;;4985015;28;20061;-68
2022/08/21 13:06:40;;;;;;;5.10;0.75;;;24.40;95.90;;;;;;5008271;28;20057;-69
2022/08/21 13:09:10;;;;;;;7.00;0.90;;;24.40;95.70;;;;;;4974437;28;20042;-67